createdAt,value
2019-02-12T00:01:20.692Z,14.90
2019-02-12T00:03:49.601Z,16.00
2019-02-12T00:06:18.521Z,13.70
2019-02-12T00:08:47.503Z,13.87
2019-02-12T00:11:16.432Z,14.07
2019-02-12T00:13:45.329Z,10.37
2019-02-12T00:16:14.376Z,12.73
2019-02-12T00:18:43.301Z,12.97
2019-02-12T00:21:12.207Z,13.60
2019-02-12T00:23:41.091Z,13.93
2019-02-12T00:26:10.090Z,18.27
2019-02-12T00:28:38.989Z,13.30
2019-02-12T00:31:07.891Z,13.67
2019-02-12T00:33:36.811Z,11.40
2019-02-12T00:36:05.735Z,14.10
2019-02-12T00:38:34.615Z,13.83
2019-02-12T00:41:03.517Z,15.97
2019-02-12T00:43:32.564Z,14.37
2019-02-12T00:46:01.537Z,11.30
2019-02-12T00:48:30.433Z,12.73
2019-02-12T00:50:59.384Z,14.23
2019-02-12T00:53:28.281Z,14.23
2019-02-12T00:55:57.258Z,14.03
2019-02-12T00:58:26.165Z,9.97
2019-02-12T01:00:55.084Z,11.97
2019-02-12T01:03:24.037Z,12.47
2019-02-12T01:05:53.018Z,14.03
2019-02-12T01:08:21.921Z,10.97
2019-02-12T01:10:50.816Z,13.83
2019-02-12T01:13:19.751Z,10.53
2019-02-12T01:15:48.711Z,11.97
2019-02-12T01:18:17.620Z,10.53
2019-02-12T01:20:46.537Z,10.80
2019-02-12T01:23:15.433Z,11.50
2019-02-12T01:25:44.333Z,13.63
2019-02-12T01:28:13.247Z,15.83
2019-02-12T01:30:42.146Z,13.67
2019-02-12T01:33:11.061Z,12.57
2019-02-12T01:35:39.954Z,10.83
2019-02-12T01:38:08.848Z,10.77
2019-02-12T01:40:38.615Z,10.00
2019-02-12T01:43:07.530Z,10.83
2019-02-12T01:45:36.430Z,13.10
2019-02-12T01:48:05.330Z,12.50
2019-02-12T01:50:34.260Z,12.93
2019-02-12T01:53:03.159Z,15.87
2019-02-12T01:55:32.071Z,11.70
2019-02-12T01:58:00.981Z,9.77
2019-02-12T02:00:29.935Z,13.40
2019-02-12T02:02:58.836Z,13.50
2019-02-12T02:05:27.777Z,9.50
2019-02-12T02:07:56.672Z,10.30
2019-02-12T02:10:25.569Z,12.63
2019-02-12T02:12:54.544Z,12.20
2019-02-12T02:15:23.450Z,14.50
2019-02-12T02:17:52.341Z,9.80
2019-02-12T02:20:21.236Z,9.53
2019-02-12T02:22:50.156Z,12.83
2019-02-12T02:25:19.043Z,11.23
2019-02-12T02:27:49.018Z,11.53
2019-02-12T02:30:17.949Z,10.33
2019-02-12T02:32:46.843Z,10.93
2019-02-12T02:35:15.739Z,10.13
2019-02-12T02:37:44.672Z,10.10
2019-02-12T02:40:13.642Z,11.60
2019-02-12T02:42:42.539Z,14.70
2019-02-12T02:45:12.327Z,13.50
2019-02-12T02:47:41.228Z,12.07
2019-02-12T02:50:10.299Z,12.77
2019-02-12T02:52:39.226Z,12.47
2019-02-12T02:55:08.584Z,9.00
2019-02-12T02:57:37.480Z,9.50
2019-02-12T03:00:07.791Z,12.10
2019-02-12T03:02:36.767Z,8.93
2019-02-12T03:05:06.622Z,9.07
2019-02-12T03:07:35.548Z,11.17
2019-02-12T03:10:05.189Z,12.23
2019-02-12T03:12:34.160Z,10.93
2019-02-12T03:15:03.149Z,12.60
2019-02-12T03:17:33.108Z,9.53
2019-02-12T03:20:02.008Z,10.77
2019-02-12T03:22:31.011Z,9.87
2019-02-12T03:24:59.904Z,13.37
2019-02-12T03:27:28.814Z,15.27
2019-02-12T03:29:57.740Z,11.07
2019-02-12T03:32:26.642Z,11.33
2019-02-12T03:34:55.542Z,12.90
2019-02-12T03:37:24.455Z,11.07
2019-02-12T03:39:53.357Z,16.57
2019-02-12T03:42:22.342Z,13.20
2019-02-12T03:44:51.262Z,15.27
2019-02-12T03:47:20.179Z,14.50
2019-02-12T03:49:49.094Z,13.23
2019-02-12T03:52:18.188Z,15.50
2019-02-12T03:54:47.099Z,19.83
2019-02-12T03:57:16.008Z,19.23
2019-02-12T03:59:44.990Z,13.53
2019-02-12T04:02:13.887Z,19.67
2019-02-12T04:04:42.785Z,20.63
2019-02-12T04:07:11.746Z,17.83
2019-02-12T04:09:40.637Z,19.67
2019-02-12T04:12:09.535Z,26.67
2019-02-12T04:14:38.459Z,21.10
2019-02-12T04:17:07.361Z,20.97
2019-02-12T04:19:37.236Z,19.77
2019-02-12T04:22:06.184Z,18.73
2019-02-12T04:24:35.117Z,20.70
2019-02-12T04:27:04.016Z,21.30
2019-02-12T04:29:32.928Z,24.07
2019-02-12T04:32:01.819Z,22.07
2019-02-12T04:34:30.721Z,22.63
2019-02-12T04:36:59.648Z,19.13
2019-02-12T04:39:28.561Z,21.33
2019-02-12T04:41:57.455Z,24.00
2019-02-12T04:44:26.388Z,21.73
2019-02-12T04:46:55.294Z,21.47
2019-02-12T04:49:24.208Z,19.20
2019-02-12T04:51:53.126Z,20.40
2019-02-12T04:54:22.039Z,21.60
2019-02-12T04:56:50.953Z,22.43
2019-02-12T04:59:19.903Z,23.43
2019-02-12T05:01:48.796Z,22.80
2019-02-12T05:04:18.808Z,23.00
2019-02-12T05:06:47.735Z,23.43
2019-02-12T05:09:17.507Z,21.50
2019-02-12T05:11:48.071Z,20.00
2019-02-12T05:14:16.993Z,22.17
2019-02-12T05:16:45.893Z,24.43
2019-02-12T05:19:14.805Z,24.20
2019-02-12T05:21:43.802Z,17.73
2019-02-12T05:24:12.721Z,20.63
2019-02-12T05:26:41.619Z,20.87
2019-02-12T05:29:10.555Z,21.63
2019-02-12T05:31:39.474Z,18.97
2019-02-12T05:34:08.382Z,19.37
2019-02-12T05:36:37.388Z,20.00
2019-02-12T05:39:06.368Z,18.37
2019-02-12T05:41:35.338Z,23.07
2019-02-12T05:44:04.256Z,21.07
2019-02-12T05:46:34.163Z,23.63
2019-02-12T05:49:03.080Z,23.07
2019-02-12T05:51:31.978Z,19.53
2019-02-12T05:54:01.047Z,17.50
2019-02-12T05:56:29.962Z,17.43
2019-02-12T05:58:58.872Z,21.93
2019-02-12T06:01:27.817Z,21.57
2019-02-12T06:03:56.738Z,20.13
2019-02-12T06:06:25.646Z,19.13
2019-02-12T06:08:54.571Z,18.73
2019-02-12T06:11:23.463Z,19.10
2019-02-12T06:13:52.436Z,25.00
2019-02-12T06:16:21.368Z,19.80
2019-02-12T06:18:50.298Z,21.77
2019-02-12T06:21:19.188Z,20.20
2019-02-12T06:23:48.120Z,23.30
2019-02-12T06:26:17.018Z,19.17
2019-02-12T06:28:45.911Z,19.67
2019-02-12T06:31:14.834Z,21.07
2019-02-12T06:33:43.738Z,23.50
2019-02-12T06:36:12.695Z,23.77
2019-02-12T06:38:41.591Z,21.53
2019-02-12T06:41:10.505Z,20.20
2019-02-12T06:43:39.439Z,18.93
2019-02-12T06:46:08.343Z,24.33
2019-02-12T06:48:37.238Z,21.57
2019-02-12T06:51:06.189Z,29.83
2019-02-12T06:53:35.127Z,27.47
2019-02-12T06:56:04.029Z,25.63
2019-02-12T06:58:32.973Z,23.67
2019-02-12T07:01:02.059Z,18.37
2019-02-12T07:03:32.851Z,23.97
2019-02-12T07:06:06.070Z,26.80
2019-02-12T07:08:51.737Z,24.03
2019-02-12T07:11:34.165Z,27.23
2019-02-12T07:14:21.001Z,23.87
2019-02-12T07:17:09.803Z,23.10
2019-02-12T07:19:40.279Z,29.57
2019-02-12T07:22:27.456Z,27.10
2019-02-12T07:25:03.891Z,26.77
2019-02-12T07:27:34.527Z,32.87
2019-02-12T07:30:04.987Z,25.80
2019-02-12T07:32:35.540Z,24.07
2019-02-12T07:35:09.088Z,26.10
2019-02-12T07:37:42.515Z,38.10
2019-02-12T07:40:22.160Z,39.90
2019-02-12T07:43:04.569Z,30.07
2019-02-12T07:45:46.947Z,29.30
2019-02-12T07:48:23.265Z,24.53
2019-02-12T07:50:59.766Z,34.00
2019-02-12T07:53:31.458Z,35.60
2019-02-12T07:56:04.817Z,27.93
2019-02-12T07:58:41.005Z,27.83
2019-02-12T08:01:11.510Z,29.63
2019-02-12T08:03:58.502Z,26.87
2019-02-12T08:06:35.043Z,28.47
2019-02-12T08:09:17.799Z,25.43
2019-02-12T08:11:54.242Z,51.87
2019-02-12T08:14:24.682Z,39.50
2019-02-12T08:16:58.073Z,51.77
2019-02-12T08:19:28.535Z,29.70
2019-02-12T08:22:05.168Z,32.67
2019-02-12T08:24:41.768Z,28.43
2019-02-12T08:27:21.053Z,34.17
2019-02-12T08:29:54.446Z,25.93
2019-02-12T08:32:27.602Z,26.97
2019-02-12T08:35:14.876Z,23.83
2019-02-12T08:37:45.351Z,25.60
2019-02-12T08:40:33.779Z,25.33
2019-02-12T08:43:04.230Z,28.77
2019-02-12T08:45:43.644Z,25.40
2019-02-12T08:48:23.043Z,24.27
2019-02-12T08:50:59.334Z,26.87
2019-02-12T08:53:29.776Z,27.37
2019-02-12T08:56:06.395Z,29.20
2019-02-12T08:58:36.832Z,30.40
2019-02-12T09:01:13.294Z,23.70
2019-02-12T09:03:46.565Z,24.20
2019-02-12T09:06:22.752Z,28.13
2019-02-12T09:08:56.121Z,26.83
2019-02-12T09:11:35.486Z,25.63
2019-02-12T09:14:11.921Z,20.23
2019-02-12T09:16:45.072Z,21.73
2019-02-12T09:19:21.419Z,20.23
2019-02-12T09:21:51.924Z,21.40
2019-02-12T09:24:31.465Z,21.43
2019-02-12T09:27:01.933Z,25.17
2019-02-12T09:29:38.054Z,21.50
2019-02-12T09:32:24.978Z,23.97
2019-02-12T09:34:58.364Z,21.23
2019-02-12T09:37:34.705Z,22.03
2019-02-12T09:40:21.924Z,24.37
2019-02-12T09:42:52.383Z,19.07
2019-02-12T09:45:25.749Z,18.70
2019-02-12T09:47:58.982Z,18.53
2019-02-12T09:50:46.074Z,23.23
2019-02-12T09:53:16.538Z,21.67
2019-02-12T09:55:46.980Z,24.13
2019-02-12T09:58:34.367Z,17.87
2019-02-12T10:01:04.824Z,25.37
2019-02-12T10:03:35.282Z,21.77
2019-02-12T10:06:08.824Z,19.53
2019-02-12T10:08:51.442Z,20.30
2019-02-12T10:11:24.823Z,19.93
2019-02-12T10:13:58.160Z,20.37
2019-02-12T10:16:31.617Z,18.63
2019-02-12T10:19:13.971Z,21.10
2019-02-12T10:21:59.786Z,18.40
2019-02-12T10:24:32.927Z,20.97
2019-02-12T10:27:20.776Z,19.27
2019-02-12T10:29:53.904Z,20.77
2019-02-12T10:32:22.295Z,21.07
2019-02-12T10:34:51.210Z,18.70
2019-02-12T10:37:20.115Z,21.93
2019-02-12T10:39:49.073Z,18.63
2019-02-12T10:42:18.044Z,18.67
2019-02-12T10:44:47.095Z,17.17
2019-02-12T10:47:16.030Z,18.67
2019-02-12T10:49:44.997Z,18.40
2019-02-12T10:52:13.919Z,17.63
2019-02-12T10:54:42.925Z,20.97
2019-02-12T10:57:11.831Z,19.70
2019-02-12T10:59:40.736Z,24.37
2019-02-12T11:02:09.673Z,16.37
2019-02-12T11:04:38.588Z,16.50
2019-02-12T11:07:07.559Z,15.63
2019-02-12T11:09:36.496Z,17.63
2019-02-12T11:12:05.408Z,19.47
2019-02-12T11:14:34.307Z,18.40
2019-02-12T11:17:03.238Z,15.90
2019-02-12T11:19:33.216Z,14.50
2019-02-12T11:22:02.129Z,17.23
2019-02-12T11:24:35.689Z,15.33
2019-02-12T11:27:01.811Z,21.10
2019-02-12T11:29:30.721Z,14.20
2019-02-12T11:31:59.651Z,13.97
2019-02-12T11:34:28.794Z,15.80
2019-02-12T11:36:57.700Z,14.17
2019-02-12T11:39:27.580Z,16.97
2019-02-12T11:41:56.506Z,17.63
2019-02-12T11:44:25.417Z,14.00
2019-02-12T11:46:54.376Z,21.63
2019-02-12T11:49:23.336Z,15.13
2019-02-12T11:51:52.237Z,12.10
2019-02-12T11:54:21.139Z,12.07
2019-02-12T11:56:50.092Z,13.93
2019-02-12T11:59:18.989Z,12.73
2019-02-12T12:01:47.897Z,13.07
2019-02-12T12:04:16.857Z,10.07
2019-02-12T12:06:45.828Z,11.20
2019-02-12T12:09:14.713Z,11.50
2019-02-12T12:11:43.621Z,12.57
2019-02-12T12:14:12.520Z,11.80
2019-02-12T12:16:41.432Z,12.97
2019-02-12T12:19:10.336Z,12.60
2019-02-12T12:21:39.223Z,10.57
2019-02-12T12:24:08.194Z,10.27
2019-02-12T12:26:37.126Z,9.60
2019-02-12T12:29:06.031Z,12.83
2019-02-12T12:31:34.927Z,8.67
2019-02-12T12:34:03.929Z,14.73
2019-02-12T12:36:32.822Z,9.17
2019-02-12T12:39:01.727Z,7.97
2019-02-12T12:41:32.270Z,11.17
2019-02-12T12:44:01.176Z,11.77
2019-02-12T12:46:30.065Z,8.07
2019-02-12T12:48:59.330Z,7.53
2019-02-12T12:51:28.265Z,9.33
2019-02-12T12:53:57.171Z,11.00
2019-02-12T12:56:26.077Z,6.53
2019-02-12T12:58:54.988Z,11.83
2019-02-12T13:01:23.882Z,9.87
2019-02-12T13:03:53.883Z,7.83
2019-02-12T13:06:22.794Z,10.60
2019-02-12T13:08:51.772Z,6.73
2019-02-12T13:11:21.721Z,5.77
2019-02-12T13:13:50.620Z,7.17
2019-02-12T13:16:19.512Z,4.63
2019-02-12T13:18:48.436Z,4.33
2019-02-12T13:21:17.335Z,5.90
2019-02-12T13:23:46.306Z,3.73
2019-02-12T13:26:15.267Z,5.57
2019-02-12T13:28:44.151Z,8.03
2019-02-12T13:31:13.057Z,5.30
2019-02-12T13:33:42.054Z,4.80
2019-02-12T13:36:10.964Z,4.83
2019-02-12T13:38:39.850Z,4.77
2019-02-12T13:41:08.799Z,6.80
2019-02-12T13:43:37.680Z,5.60
2019-02-12T13:46:06.650Z,4.80
2019-02-12T13:48:35.640Z,5.50
2019-02-12T13:51:04.528Z,4.00
2019-02-12T13:53:34.317Z,5.00
2019-02-12T13:56:03.760Z,4.33
2019-02-12T13:58:32.726Z,7.13
2019-02-12T14:01:01.610Z,7.33
2019-02-12T14:03:30.556Z,4.07
2019-02-12T14:05:59.482Z,6.97
2019-02-12T14:08:29.386Z,6.10
2019-02-12T14:10:58.408Z,8.77
2019-02-12T14:13:27.303Z,6.10
2019-02-12T14:15:56.190Z,7.13
2019-02-12T14:18:25.127Z,3.83
2019-02-12T14:20:54.008Z,5.50
2019-02-12T14:23:22.893Z,3.67
2019-02-12T14:25:51.939Z,4.40
2019-02-12T14:28:20.836Z,5.27
2019-02-12T14:30:49.733Z,5.63
2019-02-12T14:33:18.670Z,5.97
2019-02-12T14:35:47.556Z,4.50
2019-02-12T14:38:16.445Z,5.57
2019-02-12T14:40:45.362Z,4.83
2019-02-12T14:43:14.515Z,4.73
2019-02-12T14:45:43.495Z,8.70
2019-02-12T14:48:12.416Z,5.07
2019-02-12T14:50:41.317Z,6.73
2019-02-12T14:53:10.312Z,4.20
2019-02-12T14:55:39.257Z,5.53
2019-02-12T14:58:08.219Z,11.40
2019-02-12T15:00:37.185Z,6.47
2019-02-12T15:03:06.116Z,10.00
2019-02-12T15:05:35.025Z,8.83
2019-02-12T15:08:03.921Z,7.37
2019-02-12T15:10:32.849Z,11.13
2019-02-12T15:13:01.738Z,8.47
2019-02-12T15:15:30.639Z,5.63
2019-02-12T15:17:59.654Z,6.40
2019-02-12T15:20:28.617Z,7.23
2019-02-12T15:22:57.513Z,7.30
2019-02-12T15:25:26.412Z,6.00
2019-02-12T15:27:55.381Z,7.47
2019-02-12T15:30:24.265Z,7.57
2019-02-12T15:32:53.256Z,6.10
2019-02-12T15:35:22.236Z,5.43
2019-02-12T15:37:51.128Z,8.03
2019-02-12T15:40:20.459Z,7.97
2019-02-12T15:42:49.428Z,6.33
2019-02-12T15:45:20.058Z,7.37
2019-02-12T15:47:50.073Z,7.93
2019-02-12T15:50:19.040Z,6.40
2019-02-12T15:52:47.944Z,9.67
2019-02-12T15:55:16.970Z,7.77
2019-02-12T15:57:46.128Z,9.17
2019-02-12T16:00:18.627Z,11.77
2019-02-12T16:02:47.653Z,11.80
2019-02-12T16:05:16.555Z,4.87
2019-02-12T16:07:47.357Z,7.17
2019-02-12T16:10:19.917Z,7.40
2019-02-12T16:12:51.353Z,5.70
2019-02-12T16:15:22.417Z,6.97
2019-02-12T16:17:50.652Z,9.87
2019-02-12T16:20:19.563Z,9.90
2019-02-12T16:22:48.495Z,6.73
2019-02-12T16:25:17.391Z,6.07
2019-02-12T16:27:46.431Z,8.10
2019-02-12T16:30:18.745Z,7.80
2019-02-12T16:32:47.634Z,6.83
2019-02-12T16:35:16.998Z,8.33
2019-02-12T16:37:46.043Z,7.33
2019-02-12T16:40:15.637Z,11.13
2019-02-12T16:42:44.533Z,7.33
2019-02-12T16:45:17.854Z,8.23
2019-02-12T16:47:46.767Z,7.03
2019-02-12T16:50:16.706Z,7.50
2019-02-12T16:52:45.701Z,7.70
2019-02-12T16:55:14.662Z,9.27
2019-02-12T16:57:43.730Z,10.40
2019-02-12T17:00:13.900Z,7.67
2019-02-12T17:02:42.878Z,4.90
2019-02-12T17:05:12.846Z,7.43
2019-02-12T17:07:42.774Z,11.57
2019-02-12T17:10:11.814Z,6.40
2019-02-12T17:12:40.796Z,12.23
2019-02-12T17:15:13.330Z,8.17
2019-02-12T17:17:42.441Z,5.90
2019-02-12T17:20:13.018Z,7.23
2019-02-12T17:22:42.063Z,7.50
2019-02-12T17:25:11.270Z,11.57
2019-02-12T17:27:40.176Z,7.67
2019-02-12T17:30:10.302Z,6.87
2019-02-12T17:32:39.394Z,8.80
2019-02-12T17:35:08.740Z,12.33
2019-02-12T17:37:37.710Z,10.97
2019-02-12T17:40:16.120Z,10.00
2019-02-12T17:42:45.289Z,7.20
2019-02-12T17:45:14.768Z,7.67
2019-02-12T17:47:43.737Z,11.10
2019-02-12T17:50:13.338Z,12.87
2019-02-12T17:52:42.305Z,9.07
2019-02-12T17:55:11.475Z,10.13
2019-02-12T17:57:40.427Z,6.60
2019-02-12T18:00:12.516Z,10.70
2019-02-12T18:02:41.687Z,8.90
2019-02-12T18:05:10.626Z,6.63
2019-02-12T18:07:39.528Z,5.10
2019-02-12T18:10:09.540Z,4.83
2019-02-12T18:12:38.508Z,5.97
2019-02-12T18:15:08.963Z,5.27
2019-02-12T18:17:37.923Z,5.93
2019-02-12T18:20:08.121Z,4.53
2019-02-12T18:22:37.020Z,6.00
2019-02-12T18:25:07.468Z,7.03
2019-02-12T18:27:36.582Z,9.00
2019-02-12T18:30:07.102Z,4.80
2019-02-12T18:32:36.184Z,6.03
2019-02-12T18:35:05.732Z,6.23
2019-02-12T18:37:34.668Z,4.90
2019-02-12T18:40:04.916Z,4.57
2019-02-12T18:42:33.979Z,6.37
2019-02-12T18:45:03.108Z,6.20
2019-02-12T18:47:32.879Z,4.77
2019-02-12T18:50:01.938Z,5.07
2019-02-12T18:52:30.999Z,3.77
2019-02-12T18:54:59.983Z,5.53
2019-02-12T18:57:29.188Z,5.87
2019-02-12T18:59:58.320Z,7.13
2019-02-12T19:02:27.464Z,6.60
2019-02-12T19:04:56.471Z,6.17
2019-02-12T19:07:25.585Z,8.13
2019-02-12T19:09:54.806Z,9.70
2019-02-12T19:12:23.733Z,9.33
2019-02-12T19:14:52.732Z,11.57
2019-02-12T19:17:21.698Z,5.47
2019-02-12T19:19:50.618Z,9.17
2019-02-12T19:22:19.508Z,6.87
2019-02-12T19:24:48.481Z,3.57
2019-02-12T19:27:17.404Z,6.73
2019-02-12T19:29:46.307Z,7.47
2019-02-12T19:32:15.242Z,6.17
2019-02-12T19:34:44.216Z,7.27
2019-02-12T19:37:13.102Z,6.73
2019-02-12T19:39:42.150Z,6.30
2019-02-12T19:42:11.124Z,4.93
2019-02-12T19:44:40.039Z,6.70
2019-02-12T19:47:08.996Z,4.57
2019-02-12T19:49:37.934Z,7.07
2019-02-12T19:52:06.829Z,6.93
2019-02-12T19:54:35.714Z,6.40
2019-02-12T19:57:04.636Z,5.33
2019-02-12T19:59:33.539Z,4.40
2019-02-12T20:02:02.472Z,5.90
2019-02-12T20:04:31.400Z,8.93
2019-02-12T20:07:00.441Z,5.77
2019-02-12T20:12:52.795Z,4.93
2019-02-12T20:15:22.090Z,7.97
2019-02-12T20:17:50.987Z,4.80
2019-02-12T20:20:19.951Z,7.87
2019-02-12T20:22:48.934Z,7.23
2019-02-12T20:25:22.851Z,8.63
2019-02-12T20:27:51.770Z,5.70
2019-02-12T20:30:20.658Z,8.20
2019-02-12T20:32:49.628Z,6.00
2019-02-12T20:35:22.161Z,5.50
2019-02-12T20:37:51.139Z,5.20
2019-02-12T20:40:20.192Z,7.50
2019-02-12T20:42:49.139Z,10.50
2019-02-12T20:45:18.567Z,6.80
2019-02-12T20:47:48.657Z,7.63
2019-02-12T20:50:19.194Z,9.07
2019-02-12T20:52:48.169Z,7.20
2019-02-12T20:55:17.140Z,8.27
2019-02-12T20:57:46.056Z,7.27
2019-02-12T21:00:16.490Z,10.67
2019-02-12T21:02:45.392Z,8.87
2019-02-12T21:05:15.169Z,7.10
2019-02-12T21:07:44.166Z,5.00
2019-02-12T21:10:16.869Z,9.57
2019-02-12T21:12:45.856Z,6.33
2019-02-12T21:15:16.316Z,6.17
2019-02-12T21:17:45.255Z,7.77
2019-02-12T21:20:14.205Z,6.47
2019-02-12T21:22:43.283Z,8.70
2019-02-12T21:25:12.682Z,7.43
2019-02-12T21:27:41.654Z,9.67
2019-02-12T21:30:12.083Z,7.63
2019-02-12T21:32:41.025Z,6.90
2019-02-12T21:35:11.394Z,12.47
2019-02-12T21:37:40.296Z,8.47
2019-02-12T21:40:13.449Z,15.17
2019-02-12T21:42:42.341Z,8.97
2019-02-12T21:45:12.930Z,7.67
2019-02-12T21:47:41.840Z,9.90
2019-02-12T21:50:11.433Z,8.27
2019-02-12T21:52:40.404Z,8.60
2019-02-12T21:55:17.182Z,9.50
2019-02-12T21:57:46.072Z,8.33
2019-02-12T22:00:16.711Z,7.23
2019-02-12T22:02:45.763Z,7.07
2019-02-12T22:05:15.122Z,8.63
2019-02-12T22:07:44.168Z,11.87
2019-02-12T22:10:17.615Z,10.63
2019-02-12T22:12:46.654Z,13.90
2019-02-12T22:15:15.546Z,11.80
2019-02-12T22:17:44.455Z,9.33
2019-02-12T22:20:14.931Z,9.47
2019-02-12T22:22:43.832Z,12.43
2019-02-12T22:25:12.788Z,10.80
2019-02-12T22:27:41.764Z,10.60
2019-02-12T22:30:20.421Z,9.93
2019-02-12T22:32:49.344Z,7.47
2019-02-12T22:35:18.221Z,7.90
2019-02-12T22:37:47.113Z,7.47
2019-02-12T22:40:16.384Z,7.40
2019-02-12T22:42:45.366Z,13.50
2019-02-12T22:45:16.461Z,10.37
2019-02-12T22:47:45.518Z,7.03
2019-02-12T22:50:14.489Z,7.43
2019-02-12T22:52:43.472Z,9.60
2019-02-12T22:55:12.384Z,8.07
2019-02-12T22:57:48.919Z,8.37
2019-02-12T23:00:44.877Z,8.40
2019-02-12T23:03:14.396Z,10.13
2019-02-12T23:05:43.296Z,9.23
2019-02-12T23:08:12.296Z,7.70
2019-02-12T23:10:41.263Z,9.10
2019-02-12T23:13:10.169Z,10.10
2019-02-12T23:15:39.224Z,8.80
2019-02-12T23:18:08.246Z,11.33
2019-02-12T23:20:37.140Z,11.87
2019-02-12T23:23:06.112Z,14.33
2019-02-12T23:25:35.002Z,11.10
2019-02-12T23:28:04.043Z,10.40
2019-02-12T23:30:33.050Z,13.07
2019-02-12T23:33:01.942Z,9.77
2019-02-12T23:35:30.980Z,8.40
2019-02-12T23:37:59.904Z,11.90
2019-02-12T23:40:28.803Z,9.17
2019-02-12T23:42:57.702Z,9.13
2019-02-12T23:45:26.612Z,15.13
2019-02-12T23:47:55.510Z,11.00
2019-02-12T23:50:24.410Z,8.10
2019-02-12T23:52:53.306Z,10.83
2019-02-12T23:55:22.213Z,11.33
2019-02-12T23:57:51.118Z,14.60
